Time;durP1;ratioP1;P1;durP2;ratioP2;P2;SDS_P1;SDS_P2;PMS_P1;PMS_P2;Temp;Humidity;BMP_temperature;BMP_pressure;BME280_temperature;BME280_humidity;BME280_pressure;Samples;Min_cycle;Max_cycle;Signal;HPM_P1;HPM_P2
2021/09/15 00:01:10;;;;;;;11.10;10.07;;;;;;;;;;5033329;28;21036;-62
2021/09/15 00:03:39;;;;;;;10.87;9.73;;;;;;;;;;5032999;28;20503;-62
2021/09/15 00:06:06;;;;;;;12.13;9.93;;;;;;;;;;5032955;28;20934;-62
2021/09/15 00:08:33;;;;;;;11.37;10.37;;;;;;;;;;5032855;28;20497;-61
2021/09/15 00:11:01;;;;;;;15.13;12.63;;;;;;;;;;5033048;28;20886;-61
2021/09/15 00:13:28;;;;;;;11.53;10.53;;;;;;;;;;5033923;28;20571;-61
2021/09/15 00:15:56;;;;;;;11.37;10.33;;;;;;;;;;5033222;28;20446;-61
2021/09/15 00:18:23;;;;;;;10.47;9.43;;;;;;;;;;5033169;28;20459;-63
2021/09/15 00:20:52;;;;;;;12.20;11.10;;;;;;;;;;5032730;28;20466;-62
2021/09/15 00:23:19;;;;;;;11.00;10.00;;;;;;;;;;5033696;28;20442;-62
2021/09/15 00:25:46;;;;;;;11.00;9.90;;;;;;;;;;5037017;28;20507;-63
2021/09/15 00:28:13;;;;;;;12.13;10.83;;;;;;;;;;5037305;28;20442;-62
2021/09/15 00:30:41;;;;;;;11.70;10.70;;;;;;;;;;5037182;28;20906;-62
2021/09/15 00:33:08;;;;;;;10.20;9.40;;;;;;;;;;5036799;28;21058;-62
2021/09/15 00:35:35;;;;;;;11.67;10.57;;;;;;;;;;5037152;28;20449;-62
2021/09/15 00:38:04;;;;;;;13.07;10.93;;;;;;;;;;5037086;28;20453;-62
2021/09/15 00:40:31;;;;;;;11.53;10.17;;;;;;;;;;5036996;28;20462;-62
2021/09/15 00:42:58;;;;;;;14.27;11.60;;;;;;;;;;5038168;28;20446;-62
2021/09/15 00:45:25;;;;;;;11.50;10.43;;;;;;;;;;5037502;28;20445;-62
2021/09/15 00:47:53;;;;;;;11.57;10.43;;;;;;;;;;5036793;28;20865;-61
2021/09/15 00:50:20;;;;;;;11.60;10.50;;;;;;;;;;5036871;28;20481;-62
2021/09/15 00:52:47;;;;;;;11.73;10.73;;;;;;;;;;5036698;28;20506;-61
2021/09/15 00:55:16;;;;;;;13.03;10.70;;;;;;;;;;5036914;28;20453;-62
2021/09/15 00:57:43;;;;;;;10.63;9.73;;;;;;;;;;5036823;28;20527;-62
2021/09/15 01:00:11;;;;;;;10.93;9.83;;;;;;;;;;5036463;28;20987;-62
2021/09/15 01:02:38;;;;;;;11.20;10.23;;;;;;;;;;5036552;28;20988;-61
2021/09/15 01:05:06;;;;;;;11.87;10.70;;;;;;;;;;5036753;28;20450;-61
2021/09/15 01:07:34;;;;;;;11.70;10.50;;;;;;;;;;5036488;28;20446;-61
2021/09/15 01:10:02;;;;;;;12.50;11.20;;;;;;;;;;5036519;28;20474;-61
2021/09/15 01:12:31;;;;;;;12.60;11.40;;;;;;;;;;5036488;28;20445;-61
2021/09/15 01:14:58;;;;;;;11.70;10.70;;;;;;;;;;5036341;28;20527;-61
2021/09/15 01:17:25;;;;;;;11.60;10.40;;;;;;;;;;5036455;28;20448;-61
2021/09/15 01:19:52;;;;;;;11.30;10.20;;;;;;;;;;5036303;28;20499;-61
2021/09/15 01:22:22;;;;;;;11.40;10.40;;;;;;;;;;5036320;28;20441;-62
2021/09/15 01:24:49;;;;;;;14.93;11.73;;;;;;;;;;5036243;28;20452;-61
2021/09/15 01:27:16;;;;;;;13.00;11.63;;;;;;;;;;5035935;28;20858;-61
2021/09/15 01:29:44;;;;;;;13.80;12.60;;;;;;;;;;5035825;28;20515;-61
2021/09/15 01:32:12;;;;;;;12.37;11.27;;;;;;;;;;5036411;28;20525;-62
2021/09/15 01:34:40;;;;;;;13.17;12.07;;;;;;;;;;5035490;28;20477;-62
2021/09/15 01:37:08;;;;;;;12.73;11.67;;;;;;;;;;5035476;28;20449;-62
2021/09/15 01:39:37;;;;;;;13.53;12.13;;;;;;;;;;5035872;28;20498;-63
2021/09/15 01:42:05;;;;;;;12.10;11.00;;;;;;;;;;5035593;28;20511;-62
2021/09/15 01:44:33;;;;;;;13.00;11.67;;;;;;;;;;5035705;28;20857;-62
2021/09/15 01:47:01;;;;;;;12.87;11.50;;;;;;;;;;5035813;28;20537;-61
2021/09/15 01:49:29;;;;;;;13.50;12.33;;;;;;;;;;5035656;28;20499;-63
2021/09/15 01:51:56;;;;;;;13.17;12.07;;;;;;;;;;5035751;28;20539;-61
2021/09/15 01:54:23;;;;;;;13.27;11.87;;;;;;;;;;5035549;28;20560;-61
2021/09/15 01:56:52;;;;;;;12.70;11.50;;;;;;;;;;5035852;28;20449;-61
2021/09/15 01:59:19;;;;;;;11.90;10.80;;;;;;;;;;5036034;28;20521;-62
2021/09/15 02:01:46;;;;;;;13.70;12.40;;;;;;;;;;5035990;28;20466;-62
2021/09/15 02:04:14;;;;;;;13.03;11.83;;;;;;;;;;5035458;28;20496;-62
2021/09/15 02:06:41;;;;;;;14.40;13.07;;;;;;;;;;5035389;28;20510;-62
2021/09/15 02:09:08;;;;;;;12.30;11.30;;;;;;;;;;5035361;28;20515;-62
2021/09/15 02:11:36;;;;;;;12.47;11.27;;;;;;;;;;5035295;28;20465;-62
2021/09/15 02:14:05;;;;;;;12.87;11.63;;;;;;;;;;5035308;28;20536;-62
2021/09/15 02:16:32;;;;;;;12.90;11.80;;;;;;;;;;5035231;28;20499;-61
2021/09/15 02:18:59;;;;;;;13.60;12.20;;;;;;;;;;5035501;28;20487;-61
2021/09/15 02:21:27;;;;;;;12.97;11.77;;;;;;;;;;5035079;28;20469;-62
2021/09/15 02:23:55;;;;;;;13.47;12.37;;;;;;;;;;5034957;28;20446;-61
2021/09/15 02:26:22;;;;;;;12.63;11.53;;;;;;;;;;5035098;28;20488;-61
2021/09/15 02:28:50;;;;;;;12.73;11.40;;;;;;;;;;5035025;28;20460;-62
2021/09/15 02:31:18;;;;;;;12.50;11.30;;;;;;;;;;5034979;28;20495;-61
2021/09/15 02:33:45;;;;;;;13.07;11.87;;;;;;;;;;5034942;28;20488;-62
2021/09/15 02:36:13;;;;;;;13.17;11.93;;;;;;;;;;5034953;28;20452;-62
2021/09/15 02:38:40;;;;;;;12.83;11.67;;;;;;;;;;5034705;28;20506;-62
2021/09/15 02:41:07;;;;;;;12.03;10.83;;;;;;;;;;5034852;28;20469;-61
2021/09/15 02:43:34;;;;;;;13.20;12.00;;;;;;;;;;5034485;28;20439;-62
2021/09/15 02:46:02;;;;;;;14.10;12.80;;;;;;;;;;5034810;28;20453;-62
2021/09/15 02:48:30;;;;;;;13.80;12.40;;;;;;;;;;5033807;28;20445;-63
2021/09/15 02:50:57;;;;;;;13.00;11.70;;;;;;;;;;5034454;28;20481;-62
2021/09/15 02:53:25;;;;;;;13.97;12.70;;;;;;;;;;5034906;28;20445;-62
2021/09/15 02:55:52;;;;;;;12.50;11.40;;;;;;;;;;5034506;28;20530;-62
2021/09/15 02:58:19;;;;;;;13.33;12.13;;;;;;;;;;5034747;28;20449;-62
2021/09/15 03:00:47;;;;;;;13.90;12.37;;;;;;;;;;5034713;28;20470;-62
2021/09/15 03:03:14;;;;;;;13.67;12.47;;;;;;;;;;5034392;28;20503;-62
2021/09/15 03:05:42;;;;;;;13.67;12.37;;;;;;;;;;5034681;28;20471;-62
2021/09/15 03:08:10;;;;;;;16.43;14.30;;;;;;;;;;5035031;28;20496;-61
2021/09/15 03:10:37;;;;;;;13.63;12.33;;;;;;;;;;5035857;28;20476;-61
2021/09/15 03:13:04;;;;;;;14.30;13.00;;;;;;;;;;5036838;28;20456;-62
2021/09/15 03:15:32;;;;;;;13.30;12.20;;;;;;;;;;5035736;28;20473;-62
2021/09/15 03:17:59;;;;;;;14.53;13.13;;;;;;;;;;5036806;28;20508;-62
2021/09/15 03:20:26;;;;;;;14.53;13.13;;;;;;;;;;5035377;28;20883;-62
2021/09/15 03:22:55;;;;;;;14.07;12.87;;;;;;;;;;5033713;28;20874;-62
2021/09/15 03:25:22;;;;;;;15.13;13.83;;;;;;;;;;5034189;28;20442;-62
2021/09/15 03:27:49;;;;;;;15.33;14.07;;;;;;;;;;5033849;28;20452;-62
2021/09/15 03:30:17;;;;;;;16.70;15.00;;;;;;;;;;5033989;28;20461;-62
2021/09/15 03:32:44;;;;;;;13.03;11.80;;;;;;;;;;5034537;28;20828;-62
2021/09/15 03:35:11;;;;;;;13.07;11.73;;;;;;;;;;5033941;28;20555;-62
2021/09/15 03:37:39;;;;;;;13.67;12.37;;;;;;;;;;5033499;28;20448;-61
2021/09/15 03:40:09;;;;;;;13.80;12.60;;;;;;;;;;5033488;28;20473;-62
2021/09/15 03:42:36;;;;;;;14.40;13.07;;;;;;;;;;5034300;28;20456;-62
2021/09/15 03:45:04;;;;;;;14.87;13.13;;;;;;;;;;5034051;28;20445;-62
2021/09/15 03:47:31;;;;;;;15.27;13.30;;;;;;;;;;5033807;28;20448;-62
2021/09/15 03:49:58;;;;;;;12.60;11.40;;;;;;;;;;5033312;28;20988;-61
2021/09/15 03:52:25;;;;;;;14.40;13.00;;;;;;;;;;5033694;28;20495;-62
2021/09/15 03:54:52;;;;;;;13.07;11.87;;;;;;;;;;5033588;28;20532;-61
2021/09/15 03:57:21;;;;;;;13.50;12.27;;;;;;;;;;5033763;28;20452;-62
2021/09/15 03:59:48;;;;;;;13.20;12.00;;;;;;;;;;5032658;28;20598;-62
2021/09/15 04:02:16;;;;;;;12.20;11.20;;;;;;;;;;5033364;28;20456;-61
2021/09/15 04:04:43;;;;;;;13.13;11.70;;;;;;;;;;5033320;28;20934;-61
2021/09/15 04:08:35;;;;;;;12.98;11.88;;;;;;;;;;5111510;27;1328546;-62
2021/09/15 04:11:02;;;;;;;13.10;11.90;;;;;;;;;;5132039;28;20263;-62
2021/09/15 04:13:29;;;;;;;12.10;10.87;;;;;;;;;;5133425;28;20449;-63
2021/09/15 04:15:57;;;;;;;12.37;11.20;;;;;;;;;;5134659;28;20445;-63
2021/09/15 04:18:24;;;;;;;13.97;11.30;;;;;;;;;;5134491;28;20437;-62
2021/09/15 04:20:51;;;;;;;13.93;12.40;;;;;;;;;;5134850;28;20510;-62
2021/09/15 04:23:21;;;;;;;11.93;10.63;;;;;;;;;;5134339;28;20437;-62
2021/09/15 04:31:23;;;;;;;13.87;12.60;;;;;;;;;;5134260;28;20428;-62
2021/09/15 04:33:51;;;;;;;13.27;12.17;;;;;;;;;;5133776;28;20421;-62
2021/09/15 04:36:18;;;;;;;12.37;11.27;;;;;;;;;;5135982;28;20466;-63
2021/09/15 04:38:45;;;;;;;13.50;12.13;;;;;;;;;;5141022;28;20462;-62
2021/09/15 04:41:14;;;;;;;11.37;10.27;;;;;;;;;;5143059;28;20486;-63
2021/09/15 04:43:41;;;;;;;14.27;12.80;;;;;;;;;;5144439;28;20433;-63
2021/09/15 04:46:09;;;;;;;13.20;12.00;;;;;;;;;;5142125;28;20437;-63
2021/09/15 04:48:37;;;;;;;12.70;11.50;;;;;;;;;;5146960;28;20472;-63
2021/09/15 04:51:04;;;;;;;13.00;11.90;;;;;;;;;;5147744;28;20465;-63
2021/09/15 04:53:32;;;;;;;13.83;12.67;;;;;;;;;;5145191;28;20932;-63
2021/09/15 04:55:59;;;;;;;12.77;11.37;;;;;;;;;;5133912;28;20437;-63
2021/09/15 04:58:27;;;;;;;12.30;11.30;;;;;;;;;;5143683;28;20438;-61
2021/09/15 05:00:55;;;;;;;12.87;11.57;;;;;;;;;;5144752;28;20460;-62
2021/09/15 05:03:23;;;;;;;12.87;11.77;;;;;;;;;;5135895;28;20607;-62
2021/09/15 05:05:50;;;;;;;12.63;11.43;;;;;;;;;;5132058;28;20964;-64
2021/09/15 05:08:17;;;;;;;14.10;12.90;;;;;;;;;;5130576;28;20544;-63
2021/09/15 05:10:45;;;;;;;12.50;11.37;;;;;;;;;;5131717;28;20971;-63
2021/09/15 05:13:12;;;;;;;14.03;12.60;;;;;;;;;;5137166;28;20499;-62
2021/09/15 05:15:41;;;;;;;13.47;12.20;;;;;;;;;;5133273;28;20450;-63
2021/09/15 05:18:08;;;;;;;13.43;12.03;;;;;;;;;;5128132;28;20465;-63
2021/09/15 05:20:35;;;;;;;12.97;11.87;;;;;;;;;;5117749;28;20905;-62
2021/09/15 05:23:02;;;;;;;13.20;12.00;;;;;;;;;;5117803;28;20446;-62
2021/09/15 05:25:29;;;;;;;12.03;10.87;;;;;;;;;;5117192;28;20446;-63
2021/09/15 05:27:57;;;;;;;15.40;13.90;;;;;;;;;;5118989;28;20479;-63
2021/09/15 05:30:24;;;;;;;13.53;12.23;;;;;;;;;;5118240;28;20865;-62
2021/09/15 05:32:53;;;;;;;12.50;11.40;;;;;;;;;;5117343;28;20460;-62
2021/09/15 05:35:20;;;;;;;12.97;11.60;;;;;;;;;;5117698;28;20468;-63
2021/09/15 05:37:47;;;;;;;13.00;11.80;;;;;;;;;;5118426;28;20499;-62
2021/09/15 05:40:15;;;;;;;13.80;12.57;;;;;;;;;;5117023;28;20961;-63
2021/09/15 05:42:42;;;;;;;13.63;12.30;;;;;;;;;;5117742;28;20499;-62
2021/09/15 05:45:10;;;;;;;14.03;12.73;;;;;;;;;;5116979;28;20449;-63
2021/09/15 05:47:37;;;;;;;14.03;12.63;;;;;;;;;;5117123;28;20527;-62
2021/09/15 05:50:06;;;;;;;14.10;12.50;;;;;;;;;;5117106;28;20523;-62
2021/09/15 05:52:34;;;;;;;13.70;12.40;;;;;;;;;;5116643;28;20454;-61
2021/09/15 05:55:01;;;;;;;13.40;12.07;;;;;;;;;;5117290;28;20944;-62
2021/09/15 05:57:28;;;;;;;16.00;12.40;;;;;;;;;;5117276;28;20451;-62
2021/09/15 05:59:55;;;;;;;13.70;12.50;;;;;;;;;;5118196;28;20471;-64
2021/09/15 06:02:23;;;;;;;13.20;11.93;;;;;;;;;;5117579;28;20806;-63
2021/09/15 06:04:50;;;;;;;13.57;12.23;;;;;;;;;;5118111;28;20443;-64
2021/09/15 06:07:20;;;;;;;13.00;11.80;;;;;;;;;;5117354;28;20539;-64
2021/09/15 06:09:47;;;;;;;13.40;12.10;;;;;;;;;;5116266;28;20444;-63
2021/09/15 06:12:14;;;;;;;12.30;11.10;;;;;;;;;;5116284;28;20477;-64
2021/09/15 06:14:41;;;;;;;13.67;10.73;;;;;;;;;;5117012;28;20493;-64
2021/09/15 06:17:08;;;;;;;12.77;11.50;;;;;;;;;;5116506;28;20515;-64
2021/09/15 06:19:36;;;;;;;12.20;11.00;;;;;;;;;;5115314;28;20935;-64
2021/09/15 06:22:03;;;;;;;14.60;10.60;;;;;;;;;;5115475;28;20480;-64
2021/09/15 06:24:32;;;;;;;10.83;9.93;;;;;;;;;;5115277;28;20492;-64
2021/09/15 06:26:59;;;;;;;12.13;11.03;;;;;;;;;;5115691;28;20598;-65
2021/09/15 06:29:26;;;;;;;12.30;10.50;;;;;;;;;;5114970;28;20954;-62
2021/09/15 06:31:53;;;;;;;10.87;9.87;;;;;;;;;;5114843;28;20450;-63
2021/09/15 06:34:21;;;;;;;12.10;10.87;;;;;;;;;;5115905;28;20861;-64
2021/09/15 06:36:48;;;;;;;10.83;9.73;;;;;;;;;;5116583;28;20446;-64
2021/09/15 06:39:15;;;;;;;16.43;11.60;;;;;;;;;;5115289;28;20447;-63
2021/09/15 06:41:44;;;;;;;11.37;10.33;;;;;;;;;;5114797;28;20463;-63
2021/09/15 06:44:11;;;;;;;10.83;9.93;;;;;;;;;;5115119;28;20435;-64
2021/09/15 06:46:38;;;;;;;12.53;9.73;;;;;;;;;;5114842;28;20504;-64
2021/09/15 06:49:06;;;;;;;11.17;10.07;;;;;;;;;;5114383;28;20508;-64
2021/09/15 06:51:33;;;;;;;11.70;9.67;;;;;;;;;;5114394;28;20471;-64
2021/09/15 06:54:00;;;;;;;10.13;9.30;;;;;;;;;;5115321;28;20480;-64
2021/09/15 06:56:27;;;;;;;10.53;9.53;;;;;;;;;;5114584;28;20455;-61
2021/09/15 06:58:56;;;;;;;10.17;9.17;;;;;;;;;;5114807;28;20440;-64
2021/09/15 07:01:24;;;;;;;10.33;9.20;;;;;;;;;;5114714;28;20459;-64
2021/09/15 07:03:51;;;;;;;10.90;9.80;;;;;;;;;;5114792;28;20474;-64
2021/09/15 07:06:19;;;;;;;9.60;8.83;;;;;;;;;;5114665;28;20440;-64
2021/09/15 07:08:46;;;;;;;11.00;9.87;;;;;;;;;;5113885;28;20486;-64
2021/09/15 07:11:13;;;;;;;11.67;9.73;;;;;;;;;;5116107;28;20982;-63
2021/09/15 07:13:40;;;;;;;11.87;10.73;;;;;;;;;;5118032;28;20451;-63
2021/09/15 07:16:09;;;;;;;13.00;11.13;;;;;;;;;;5114907;28;20447;-63
2021/09/15 07:18:36;;;;;;;11.83;10.60;;;;;;;;;;5114275;28;20439;-63
2021/09/15 07:21:03;;;;;;;12.70;11.50;;;;;;;;;;5114615;28;20865;-63
2021/09/15 07:23:31;;;;;;;13.90;12.60;;;;;;;;;;5114996;28;20439;-63
2021/09/15 07:25:58;;;;;;;14.53;12.40;;;;;;;;;;5114164;28;20446;-64
2021/09/15 07:28:25;;;;;;;12.30;11.10;;;;;;;;;;5114407;28;20499;-64
2021/09/15 07:30:53;;;;;;;13.93;11.90;;;;;;;;;;5114191;28;20515;-62
2021/09/15 07:33:21;;;;;;;17.90;13.10;;;;;;;;;;5114464;28;20446;-63
2021/09/15 07:35:48;;;;;;;15.13;13.63;;;;;;;;;;5114163;28;20447;-62
2021/09/15 07:38:16;;;;;;;13.97;12.47;;;;;;;;;;5114837;28;20524;-63
2021/09/15 07:40:43;;;;;;;14.40;13.00;;;;;;;;;;5113856;28;20871;-63
2021/09/15 07:43:10;;;;;;;13.63;12.33;;;;;;;;;;5114258;28;20442;-62
2021/09/15 07:45:37;;;;;;;13.80;12.50;;;;;;;;;;5113715;28;20820;-64
2021/09/15 07:48:05;;;;;;;15.10;13.60;;;;;;;;;;5113568;28;20474;-65
2021/09/15 07:50:34;;;;;;;16.50;14.00;;;;;;;;;;5113537;28;20493;-64
2021/09/15 07:53:01;;;;;;;13.17;11.73;;;;;;;;;;5114437;28;20868;-65
2021/09/15 07:55:28;;;;;;;13.37;12.07;;;;;;;;;;5114008;28;20456;-63
2021/09/15 07:57:55;;;;;;;12.30;11.17;;;;;;;;;;5114527;28;20500;-64
2021/09/15 08:00:23;;;;;;;20.63;13.47;;;;;;;;;;5115942;28;20528;-65
2021/09/15 08:02:50;;;;;;;14.30;11.10;;;;;;;;;;5116044;28;20508;-64
2021/09/15 08:05:18;;;;;;;12.20;11.13;;;;;;;;;;5119679;28;20451;-64
2021/09/15 08:07:46;;;;;;;12.43;11.07;;;;;;;;;;5114349;28;20483;-64
2021/09/15 08:10:14;;;;;;;19.27;11.13;;;;;;;;;;5117154;28;20477;-64
2021/09/15 08:12:41;;;;;;;11.70;10.47;;;;;;;;;;5122804;28;20524;-64
2021/09/15 08:15:08;;;;;;;13.03;9.10;;;;;;;;;;5124970;28;20435;-64
2021/09/15 08:17:36;;;;;;;11.70;10.60;;;;;;;;;;5126525;28;20798;-64
2021/09/15 08:20:04;;;;;;;14.70;9.93;;;;;;;;;;5126663;28;20471;-63
2021/09/15 08:22:31;;;;;;;10.90;9.80;;;;;;;;;;5120695;28;20478;-64
2021/09/15 08:25:00;;;;;;;10.17;9.27;;;;;;;;;;5120965;28;20571;-64
2021/09/15 08:27:27;;;;;;;10.63;9.53;;;;;;;;;;5121857;28;20926;-63
2021/09/15 08:29:54;;;;;;;11.73;10.63;;;;;;;;;;5120863;28;20462;-64
2021/09/15 08:32:21;;;;;;;12.00;10.53;;;;;;;;;;5116874;28;20446;-63
2021/09/15 08:34:49;;;;;;;11.87;10.73;;;;;;;;;;5118895;28;20445;-65
2021/09/15 08:37:16;;;;;;;11.43;10.20;;;;;;;;;;5119917;28;20958;-65
2021/09/15 08:39:43;;;;;;;10.80;9.70;;;;;;;;;;5121726;28;20446;-64
2021/09/15 08:42:12;;;;;;;11.23;9.83;;;;;;;;;;5119184;28;20453;-64
2021/09/15 08:44:39;;;;;;;11.33;10.23;;;;;;;;;;5119924;28;20446;-64
2021/09/15 08:47:07;;;;;;;11.03;9.97;;;;;;;;;;5116485;28;20503;-64
2021/09/15 08:49:34;;;;;;;10.87;9.77;;;;;;;;;;5114393;28;20541;-64
2021/09/15 08:52:02;;;;;;;13.37;10.67;;;;;;;;;;5114326;28;20494;-63
2021/09/15 08:54:29;;;;;;;12.00;11.00;;;;;;;;;;5116959;28;20441;-65
2021/09/15 08:56:56;;;;;;;11.33;9.47;;;;;;;;;;5117423;28;20506;-64
2021/09/15 08:59:25;;;;;;;11.53;10.53;;;;;;;;;;5117200;28;20446;-64
2021/09/15 09:02:06;;;;;;;12.50;11.40;;;;;;;;;;5117307;28;20468;-64
2021/09/15 09:04:49;;;;;;;11.47;10.37;;;;;;;;;;5117532;28;20792;-64
2021/09/15 09:07:17;;;;;;;11.37;10.27;;;;;;;;;;5117613;28;20997;-64
2021/09/15 09:09:47;;;;;;;11.77;10.57;;;;;;;;;;5117562;28;20485;-65
2021/09/15 09:12:15;;;;;;;10.97;10.07;;;;;;;;;;5117953;28;20487;-63
2021/09/15 09:14:44;;;;;;;11.43;10.53;;;;;;;;;;5117944;28;20517;-63
2021/09/15 09:17:26;;;;;;;11.43;10.43;;;;;;;;;;5118021;28;20441;-64
2021/09/15 09:20:12;;;;;;;11.10;9.97;;;;;;;;;;5117219;28;20495;-64
2021/09/15 09:22:56;;;;;;;11.60;10.50;;;;;;;;;;5119116;28;20430;-63
2021/09/15 09:25:23;;;;;;;9.40;8.60;;;;;;;;;;5118212;28;20426;-64
2021/09/15 09:27:51;;;;;;;11.63;10.43;;;;;;;;;;5116070;28;20441;-64
2021/09/15 09:30:32;;;;;;;11.20;9.87;;;;;;;;;;5116852;28;20469;-64
2021/09/15 09:33:00;;;;;;;11.80;10.57;;;;;;;;;;5116134;28;20437;-64
2021/09/15 09:35:37;;;;;;;10.83;9.90;;;;;;;;;;5116320;28;20441;-64
2021/09/15 09:38:15;;;;;;;10.17;9.37;;;;;;;;;;5119320;28;20497;-63
2021/09/15 09:40:54;;;;;;;9.00;8.27;;;;;;;;;;5117444;28;20841;-63
2021/09/15 09:43:21;;;;;;;9.40;8.60;;;;;;;;;;5119246;28;20429;-65
2021/09/15 09:45:50;;;;;;;10.03;8.97;;;;;;;;;;5117818;28;20454;-64
2021/09/15 09:48:37;;;;;;;9.97;9.07;;;;;;;;;;5116931;28;20897;-64
2021/09/15 09:51:05;;;;;;;10.77;9.67;;;;;;;;;;5117328;28;20457;-64
2021/09/15 09:53:32;;;;;;;8.73;7.93;;;;;;;;;;5116183;28;20540;-62
2021/09/15 09:56:00;;;;;;;10.37;8.67;;;;;;;;;;5116103;28;20454;-65
2021/09/15 09:58:28;;;;;;;9.57;8.67;;;;;;;;;;5116743;28;20445;-66
2021/09/15 10:00:58;;;;;;;9.70;8.70;;;;;;;;;;5116298;28;20466;-63
2021/09/15 10:03:25;;;;;;;9.63;8.83;;;;;;;;;;5116181;28;20450;-64
2021/09/15 10:05:53;;;;;;;10.30;9.40;;;;;;;;;;5116095;28;20457;-65
2021/09/15 10:08:21;;;;;;;10.57;8.73;;;;;;;;;;5115193;28;20491;-63
2021/09/15 10:10:49;;;;;;;10.13;9.13;;;;;;;;;;5115718;28;20453;-64
2021/09/15 10:13:16;;;;;;;9.93;9.00;;;;;;;;;;5115884;28;20562;-66
2021/09/15 10:15:45;;;;;;;8.83;8.03;;;;;;;;;;5115583;28;20437;-65
2021/09/15 10:18:15;;;;;;;10.10;9.10;;;;;;;;;;5114936;28;20502;-65
2021/09/15 10:20:46;;;;;;;9.90;9.00;;;;;;;;;;5115291;28;20488;-64
2021/09/15 10:23:31;;;;;;;8.83;8.03;;;;;;;;;;5115046;28;20483;-64
2021/09/15 10:25:59;;;;;;;13.50;9.03;;;;;;;;;;5115208;28;20441;-63
2021/09/15 10:28:27;;;;;;;9.73;8.93;;;;;;;;;;5114987;28;20542;-62
2021/09/15 10:30:55;;;;;;;11.93;9.97;;;;;;;;;;5115247;28;20561;-64
2021/09/15 10:33:40;;;;;;;11.73;10.70;;;;;;;;;;5115012;28;20446;-64
2021/09/15 10:36:22;;;;;;;10.03;9.23;;;;;;;;;;5115035;28;20494;-65
2021/09/15 10:38:54;;;;;;;9.93;8.97;;;;;;;;;;5114725;28;20905;-64
2021/09/15 10:41:38;;;;;;;11.67;10.50;;;;;;;;;;5114760;28;20607;-65
2021/09/15 10:44:06;;;;;;;10.13;9.33;;;;;;;;;;5115021;28;20498;-64
2021/09/15 10:46:33;;;;;;;8.67;7.87;;;;;;;;;;5115015;28;20589;-66
2021/09/15 10:49:19;;;;;;;9.90;8.87;;;;;;;;;;5114745;28;20481;-63
2021/09/15 10:51:47;;;;;;;12.90;11.60;;;;;;;;;;5108177;22;20491;-58
2021/09/15 10:54:33;;;;;;;10.47;9.47;;;;;;;;;;5073762;28;20489;-60
2021/09/15 10:57:13;;;;;;;13.27;11.87;;;;;;;;;;5073515;28;20431;-59
2021/09/15 10:59:53;;;;;;;12.47;11.40;;;;;;;;;;5073900;28;20420;-58
2021/09/15 11:02:24;;;;;;;11.20;10.20;;;;;;;;;;5054118;28;20444;-59
2021/09/15 11:04:52;;;;;;;9.97;9.10;;;;;;;;;;5053734;28;20448;-58
2021/09/15 11:07:49;;;;;;;11.53;10.43;;;;;;;;;;5053632;28;20928;-59
2021/09/15 11:10:35;;;;;;;12.73;10.37;;;;;;;;;;4992279;28;20499;-60
2021/09/15 11:13:05;;;;;;;11.90;10.80;;;;;;;;;;5048351;28;20518;-60
2021/09/15 11:15:33;;;;;;;12.00;10.90;;;;;;;;;;5053829;28;20521;-60
2021/09/15 11:18:00;;;;;;;10.57;9.77;;;;;;;;;;5053135;28;20448;-58
2021/09/15 11:20:29;;;;;;;10.63;9.70;;;;;;;;;;5053730;28;20457;-60
2021/09/15 11:22:57;;;;;;;9.87;8.97;;;;;;;;;;5053573;28;20445;-60
2021/09/15 11:25:25;;;;;;;10.07;9.27;;;;;;;;;;5053342;28;20440;-59
2021/09/15 11:28:09;;;;;;;10.87;9.90;;;;;;;;;;5053114;28;20866;-60
2021/09/15 11:30:37;;;;;;;11.40;10.30;;;;;;;;;;5052765;28;20479;-61
2021/09/15 11:33:05;;;;;;;10.40;9.40;;;;;;;;;;5053453;28;20440;-60
2021/09/15 11:35:34;;;;;;;9.83;9.03;;;;;;;;;;5052919;28;20994;-60
2021/09/15 11:38:01;;;;;;;10.47;9.47;;;;;;;;;;5053571;28;20539;-59
2021/09/15 11:40:30;;;;;;;10.07;9.13;;;;;;;;;;5053142;28;20461;-59
2021/09/15 11:42:57;;;;;;;10.50;9.50;;;;;;;;;;5053779;28;20847;-61
2021/09/15 11:45:26;;;;;;;10.40;9.40;;;;;;;;;;5052740;28;21002;-58
2021/09/15 11:47:54;;;;;;;11.17;10.17;;;;;;;;;;5053058;28;20499;-59
2021/09/15 11:50:22;;;;;;;11.83;10.57;;;;;;;;;;5052979;28;20537;-59
2021/09/15 11:52:52;;;;;;;11.10;9.83;;;;;;;;;;5053182;28;20490;-59
2021/09/15 11:55:20;;;;;;;9.73;8.90;;;;;;;;;;5053151;28;20452;-60
2021/09/15 11:57:48;;;;;;;11.20;9.80;;;;;;;;;;5053075;28;20444;-58
2021/09/15 12:00:16;;;;;;;10.30;9.50;;;;;;;;;;5052893;28;22399;-58
2021/09/15 12:02:46;;;;;;;13.67;9.90;;;;;;;;;;5053190;28;20510;-59
2021/09/15 12:05:13;;;;;;;12.40;9.80;;;;;;;;;;5052669;28;20928;-60
2021/09/15 12:07:42;;;;;;;9.73;8.83;;;;;;;;;;5052747;28;20985;-58
2021/09/15 12:10:09;;;;;;;10.53;9.53;;;;;;;;;;5052616;28;21092;-58
2021/09/15 12:12:37;;;;;;;10.70;9.40;;;;;;;;;;5052743;28;20506;-58
2021/09/15 12:15:06;;;;;;;10.37;9.03;;;;;;;;;;5053802;28;20859;-59
2021/09/15 12:17:33;;;;;;;10.40;9.33;;;;;;;;;;5052513;28;20506;-57
2021/09/15 12:20:02;;;;;;;10.73;9.73;;;;;;;;;;5052761;28;20440;-58
2021/09/15 12:22:31;;;;;;;10.67;9.73;;;;;;;;;;5052795;28;20517;-59
2021/09/15 12:25:00;;;;;;;9.83;8.90;;;;;;;;;;5052983;28;20448;-58
2021/09/15 12:27:27;;;;;;;9.47;8.63;;;;;;;;;;5052461;28;20451;-58
2021/09/15 12:29:58;;;;;;;10.57;9.47;;;;;;;;;;5055974;28;20476;-59
2021/09/15 12:32:28;;;;;;;9.90;8.93;;;;;;;;;;5056833;28;20857;-58
2021/09/15 12:34:55;;;;;;;9.10;8.40;;;;;;;;;;5056712;28;20504;-59
2021/09/15 12:37:24;;;;;;;9.50;8.60;;;;;;;;;;5056700;28;20447;-60
2021/09/15 12:39:52;;;;;;;10.13;8.90;;;;;;;;;;5056508;28;20444;-59
2021/09/15 12:42:20;;;;;;;11.17;8.10;;;;;;;;;;5056162;28;20479;-58
2021/09/15 12:44:48;;;;;;;9.83;8.93;;;;;;;;;;5056453;28;20609;-59
2021/09/15 12:47:15;;;;;;;10.40;8.73;;;;;;;;;;5056529;28;20444;-58
2021/09/15 12:49:43;;;;;;;9.67;8.87;;;;;;;;;;5056446;28;20554;-58
2021/09/15 12:52:14;;;;;;;11.23;10.07;;;;;;;;;;5056037;28;20538;-59
2021/09/15 12:54:52;;;;;;;10.10;9.27;;;;;;;;;;5056101;28;20432;-58
2021/09/15 12:57:20;;;;;;;10.00;9.03;;;;;;;;;;5056241;28;20516;-59
2021/09/15 12:59:48;;;;;;;10.37;9.47;;;;;;;;;;5056289;28;20522;-59
2021/09/15 13:02:19;;;;;;;9.77;8.97;;;;;;;;;;5056245;28;20461;-62
2021/09/15 13:04:47;;;;;;;10.80;9.60;;;;;;;;;;5056540;28;20446;-58
2021/09/15 13:07:14;;;;;;;9.97;9.13;;;;;;;;;;5056707;28;20448;-57
2021/09/15 13:09:42;;;;;;;10.50;9.50;;;;;;;;;;5056183;28;20556;-58
2021/09/15 13:12:11;;;;;;;8.93;8.07;;;;;;;;;;5056024;28;20537;-58
2021/09/15 13:14:38;;;;;;;10.83;9.73;;;;;;;;;;5056147;28;20847;-59
2021/09/15 13:17:05;;;;;;;9.10;8.37;;;;;;;;;;5056075;28;20539;-58
2021/09/15 13:19:33;;;;;;;9.93;9.03;;;;;;;;;;5055812;28;20440;-58
2021/09/15 13:22:00;;;;;;;9.67;8.47;;;;;;;;;;5055836;28;20472;-58
2021/09/15 13:24:27;;;;;;;9.67;8.23;;;;;;;;;;5055559;28;20444;-58
2021/09/15 13:26:56;;;;;;;10.53;8.83;;;;;;;;;;5055450;28;20440;-60
2021/09/15 13:29:23;;;;;;;8.53;7.70;;;;;;;;;;5055074;28;20480;-59
2021/09/15 13:31:50;;;;;;;13.00;7.93;;;;;;;;;;5055289;28;20518;-59
2021/09/15 13:34:18;;;;;;;8.40;7.70;;;;;;;;;;5055061;28;20525;-58
2021/09/15 13:36:45;;;;;;;9.10;8.30;;;;;;;;;;5055083;28;21016;-58
2021/09/15 13:39:12;;;;;;;9.17;8.27;;;;;;;;;;5054447;28;20897;-58
2021/09/15 13:41:40;;;;;;;10.27;7.27;;;;;;;;;;5054861;28;20468;-58
2021/09/15 13:44:09;;;;;;;9.40;8.50;;;;;;;;;;5055105;28;20497;-59
2021/09/15 13:46:37;;;;;;;10.23;8.20;;;;;;;;;;5055039;28;20479;-58
2021/09/15 13:49:04;;;;;;;9.60;8.60;;;;;;;;;;5055163;28;20502;-59
2021/09/15 13:51:31;;;;;;;9.20;8.27;;;;;;;;;;5054831;28;20889;-58
2021/09/15 13:53:59;;;;;;;9.00;7.77;;;;;;;;;;5055020;28;20498;-58
2021/09/15 13:56:26;;;;;;;8.40;7.67;;;;;;;;;;5055296;28;20451;-59
2021/09/15 13:58:53;;;;;;;12.80;8.13;;;;;;;;;;5055217;28;20534;-59
2021/09/15 14:01:22;;;;;;;7.87;7.10;;;;;;;;;;5054453;28;20464;-58
2021/09/15 14:03:49;;;;;;;7.70;7.00;;;;;;;;;;5054684;28;21002;-58
2021/09/15 14:06:16;;;;;;;6.60;6.00;;;;;;;;;;5055239;28;20455;-59
2021/09/15 14:08:43;;;;;;;7.60;7.00;;;;;;;;;;5054832;28;20861;-59
2021/09/15 14:11:11;;;;;;;7.67;7.07;;;;;;;;;;5054479;28;20646;-61
2021/09/15 14:13:38;;;;;;;7.83;6.80;;;;;;;;;;5054724;28;20523;-58
2021/09/15 14:16:05;;;;;;;8.60;6.47;;;;;;;;;;5054518;28;20962;-58
2021/09/15 14:18:34;;;;;;;7.70;7.00;;;;;;;;;;5054541;28;20448;-58
2021/09/15 14:21:01;;;;;;;7.40;6.30;;;;;;;;;;5054718;28;20473;-58
2021/09/15 14:23:29;;;;;;;7.57;6.67;;;;;;;;;;5054003;28;20447;-59
2021/09/15 14:25:56;;;;;;;6.63;6.07;;;;;;;;;;5054357;28;20494;-59
2021/09/15 14:28:23;;;;;;;7.13;6.43;;;;;;;;;;5053917;28;20448;-59
2021/09/15 14:30:50;;;;;;;6.50;5.97;;;;;;;;;;5054502;28;20483;-59
2021/09/15 14:33:18;;;;;;;8.47;6.00;;;;;;;;;;5054537;28;20453;-58
2021/09/15 14:35:47;;;;;;;5.80;5.30;;;;;;;;;;5054150;28;20544;-57
2021/09/15 14:38:14;;;;;;;6.67;5.90;;;;;;;;;;5053816;28;20498;-58